Time;durP1;ratioP1;P1;durP2;ratioP2;P2;SDS_P1;SDS_P2;PMS_P1;PMS_P2;Temp;Humidity;BMP_temperature;BMP_pressure;BME280_temperature;BME280_humidity;BME280_pressure;Samples;Min_cycle;Max_cycle;Signal;HPM_P1;HPM_P2
2023/04/19 00:02:26;;;;;;;7.80;5.97;;;;;;;10.62;73.16;99593.56;5092755;28;42528;-80
2023/04/19 00:04:54;;;;;;;6.63;5.93;;;;;;;10.84;73.37;99617.16;5091957;28;43251;-80
2023/04/19 00:07:21;;;;;;;6.10;5.50;;;;;;;10.89;73.66;99631.88;5094167;28;39506;-84
2023/04/19 00:09:49;;;;;;;6.07;5.47;;;;;;;10.85;73.52;99614.44;5091763;28;43083;-81
2023/04/19 00:12:18;;;;;;;6.17;5.17;;;;;;;10.89;73.22;99625.72;5091619;28;42934;-79
2023/04/19 00:14:46;;;;;;;6.27;5.67;;;;;;;10.89;73.51;99623.06;5081108;28;41102;-79
2023/04/19 00:17:13;;;;;;;6.50;4.93;;;;;;;10.80;73.45;99608.50;5081205;28;40071;-79
2023/04/19 00:19:41;;;;;;;6.10;5.50;;;;;;;10.93;73.72;99620.19;5098618;28;40503;-80
2023/04/19 00:22:09;;;;;;;7.33;5.53;;;;;;;10.80;73.16;99595.25;5098346;28;44154;-78
2023/04/19 00:24:37;;;;;;;6.17;5.47;;;;;;;10.99;73.12;99614.59;5081351;28;41419;-79
2023/04/19 00:27:04;;;;;;;5.70;4.97;;;;;;;10.82;73.30;99593.41;5075395;28;40127;-81
2023/04/19 00:29:33;;;;;;;5.50;4.90;;;;;;;10.96;72.96;99606.78;5074159;28;40627;-80
2023/04/19 00:32:01;;;;;;;5.33;4.77;;;;;;;11.01;72.67;99625.09;5074060;28;42804;-81
2023/04/19 00:34:28;;;;;;;6.27;5.67;;;;;;;10.83;72.95;99592.47;5074288;28;41229;-81
2023/04/19 00:36:56;;;;;;;6.23;5.47;;;;;;;10.88;72.31;99601.00;5074321;28;40043;-79
2023/04/19 00:39:24;;;;;;;5.60;5.00;;;;;;;10.84;72.89;99580.94;5074147;28;40879;-80
2023/04/19 00:41:52;;;;;;;6.07;5.47;;;;;;;11.02;72.39;99611.75;5091004;28;42963;-79
2023/04/19 00:44:20;;;;;;;5.60;5.07;;;;;;;11.04;72.64;99611.69;5073840;28;42427;-83
2023/04/19 00:46:49;;;;;;;6.30;5.60;;;;;;;11.03;72.54;99608.16;5075277;28;41255;-85
2023/04/19 00:49:18;;;;;;;6.23;5.67;;;;;;;11.00;72.42;99610.97;5077609;28;40879;-82
2023/04/19 00:51:47;;;;;;;6.07;5.13;;;;;;;11.02;72.30;99613.53;5077412;28;42444;-82
2023/04/19 00:54:15;;;;;;;9.23;6.20;;;;;;;10.86;72.95;99584.38;5094902;28;43094;-79
2023/04/19 00:56:44;;;;;;;7.90;5.83;;;;;;;10.95;73.18;99594.47;5077307;28;40242;-79
2023/04/19 00:59:12;;;;;;;7.10;6.40;;;;;;;10.94;73.34;99603.34;5077525;28;40775;-79
2023/04/19 01:01:40;;;;;;;7.83;7.03;;;;;;;10.95;73.38;99596.25;5094974;28;43053;-83
2023/04/19 01:04:09;;;;;;;8.00;6.90;;;;;;;10.97;73.16;99603.22;5077492;28;41259;-82
2023/04/19 01:06:40;;;;;;;7.87;6.67;;;;;;;10.84;73.52;99583.59;5094124;28;41691;-83
2023/04/19 01:09:11;;;;;;;7.53;6.73;;;;;;;10.84;73.14;99565.03;5091347;28;41960;-83
2023/04/19 01:11:42;;;;;;;9.00;6.20;;;;;;;10.95;73.04;99594.47;5093918;28;41915;-80
2023/04/19 01:14:09;;;;;;;6.60;5.90;;;;;;;10.85;72.77;99569.41;5094029;28;41998;-80
2023/04/19 01:16:37;;;;;;;6.80;5.57;;;;;;;10.96;72.60;99588.25;5093660;28;41098;-79
2023/04/19 01:19:05;;;;;;;6.40;5.70;;;;;;;10.96;72.70;99588.25;5077135;28;40768;-81
2023/04/19 01:21:37;;;;;;;6.33;5.60;;;;;;;10.99;72.43;99598.69;5076975;28;41824;-83
2023/04/19 01:24:07;;;;;;;7.23;5.97;;;;;;;10.91;72.51;99577.00;5090969;28;43312;-79
2023/04/19 01:26:35;;;;;;;7.27;6.30;;;;;;;10.83;72.89;99562.47;5093568;28;40898;-81
2023/04/19 01:29:03;;;;;;;8.23;6.70;;;;;;;10.91;72.58;99579.66;5093817;28;41065;-81
2023/04/19 01:31:31;;;;;;;6.43;5.83;;;;;;;10.94;73.05;99582.16;5094703;28;42690;-80
2023/04/19 01:33:58;;;;;;;7.30;6.53;;;;;;;10.87;72.91;99567.53;5093974;28;42455;-83
2023/04/19 01:36:27;;;;;;;7.80;6.53;;;;;;;10.90;72.72;99575.28;5093725;28;41817;-81
2023/04/19 01:38:56;;;;;;;8.80;7.90;;;;;;;10.84;73.64;99566.81;5093934;28;41918;-80
2023/04/19 01:41:25;;;;;;;8.93;7.40;;;;;;;10.78;73.76;99566.19;5093306;28;42733;-82
2023/04/19 01:43:53;;;;;;;7.00;6.23;;;;;;;10.66;73.67;99555.38;5076701;28;42566;-82
2023/04/19 01:46:21;;;;;;;8.33;7.40;;;;;;;10.63;73.97;99553.72;5076797;28;39776;-81
2023/04/19 01:48:49;;;;;;;7.87;7.00;;;;;;;10.56;74.14;99543.53;5076880;28;41875;-79
2023/04/19 01:51:17;;;;;;;6.53;5.63;;;;;;;10.62;73.88;99564.44;5076226;28;41923;-82
2023/04/19 01:53:44;;;;;;;7.63;6.83;;;;;;;10.59;73.88;99559.28;5076466;28;41254;-79
2023/04/19 01:56:12;;;;;;;7.00;6.20;;;;;;;10.31;74.01;99514.81;5076266;28;39855;-83
2023/04/19 01:58:41;;;;;;;9.43;7.63;;;;;;;10.50;74.89;99551.81;5075705;28;40576;-81
2023/04/19 02:01:11;;;;;;;7.93;6.40;;;;;;;10.29;74.44;99529.91;5076059;28;41648;-82
2023/04/19 02:03:39;;;;;;;6.90;6.13;;;;;;;10.35;74.28;99550.81;5093391;28;43061;-82
2023/04/19 02:06:11;;;;;;;6.60;5.90;;;;;;;10.17;74.25;99525.19;5076467;28;40334;-80
2023/04/19 02:08:39;;;;;;;8.00;6.27;;;;;;;10.11;75.02;99530.81;5076568;28;40786;-82
2023/04/19 02:11:08;;;;;;;8.93;7.20;;;;;;;10.14;75.30;99549.19;5093867;28;42785;-80
2023/04/19 02:13:35;;;;;;;7.67;6.73;;;;;;;9.92;75.81;99520.28;5076006;28;42381;-82
2023/04/19 02:16:06;;;;;;;7.60;6.80;;;;;;;9.96;75.77;99543.00;5092086;28;41081;-82
2023/04/19 02:18:37;;;;;;;8.07;6.87;;;;;;;9.89;75.45;99549.56;5090022;28;42046;-80
2023/04/19 02:21:05;;;;;;;8.40;7.10;;;;;;;9.82;76.36;99533.09;5092556;28;42678;-79
2023/04/19 02:23:33;;;;;;;7.37;6.67;;;;;;;9.72;75.83;99523.91;5075770;28;42751;-83
2023/04/19 02:26:02;;;;;;;7.87;7.10;;;;;;;9.81;75.62;99538.47;5076310;28;39883;-83
2023/04/19 02:28:30;;;;;;;8.07;7.23;;;;;;;9.85;75.75;99535.59;5076849;28;40819;-79
2023/04/19 02:30:58;;;;;;;8.00;7.17;;;;;;;9.80;75.71;99518.22;5076493;28;43050;-80
2023/04/19 02:33:27;;;;;;;7.80;6.43;;;;;;;9.96;75.50;99529.78;5093595;28;42525;-83
2023/04/19 02:35:55;;;;;;;8.50;7.13;;;;;;;9.98;75.42;99526.13;5076688;28;40281;-80
2023/04/19 02:38:23;;;;;;;12.20;8.67;;;;;;;9.99;77.51;99505.81;5093305;28;41907;-82
2023/04/19 02:40:54;;;;;;;8.37;7.03;;;;;;;10.03;76.30;99502.06;5076641;28;41609;-79
2023/04/19 02:43:22;;;;;;;9.07;7.77;;;;;;;10.20;75.84;99523.31;5093407;28;42287;-81
2023/04/19 02:45:50;;;;;;;8.70;7.77;;;;;;;10.29;76.45;99525.47;5075829;28;40184;-80
2023/04/19 02:48:18;;;;;;;10.93;8.30;;;;;;;10.32;76.21;99525.31;5075468;28;40905;-82
2023/04/19 02:50:47;;;;;;;8.83;7.63;;;;;;;10.30;76.29;99511.31;5075745;28;43103;-81
2023/04/19 02:53:15;;;;;;;9.07;7.67;;;;;;;10.39;75.81;99521.41;5075158;28;41419;-81
2023/04/19 02:55:43;;;;;;;8.13;6.97;;;;;;;10.43;75.61;99517.69;5092548;28;41197;-79
2023/04/19 02:58:16;;;;;;;7.03;6.33;;;;;;;10.48;75.58;99520.13;5075580;28;41634;-80
2023/04/19 03:00:55;;;;;;;7.43;6.63;;;;;;;10.52;75.48;99516.34;5075338;28;41455;-81
2023/04/19 03:03:24;;;;;;;8.07;7.27;;;;;;;10.49;75.69;99499.78;5075233;28;43182;-80
2023/04/19 03:05:54;;;;;;;9.40;7.73;;;;;;;10.57;76.03;99502.88;5092512;28;41806;-82
2023/04/19 03:08:22;;;;;;;8.03;7.20;;;;;;;10.58;75.46;99504.59;5075033;28;40871;-82
2023/04/19 03:10:50;;;;;;;8.13;6.80;;;;;;;10.57;75.45;99497.59;5091245;28;42011;-82
2023/04/19 03:13:18;;;;;;;9.43;7.47;;;;;;;10.65;75.09;99498.88;5075092;28;42187;-80
2023/04/19 03:15:46;;;;;;;7.97;6.70;;;;;;;10.68;74.81;99503.19;5075005;28;41110;-81
2023/04/19 03:18:15;;;;;;;6.93;6.13;;;;;;;10.69;74.79;99487.19;5074818;28;40681;-83
2023/04/19 03:20:44;;;;;;;8.00;7.10;;;;;;;10.76;74.92;99499.16;5075093;28;42923;-84
2023/04/19 03:23:13;;;;;;;12.60;8.87;;;;;;;10.76;75.47;99493.88;5074760;28;41495;-79
2023/04/19 03:25:42;;;;;;;9.27;7.77;;;;;;;10.77;75.88;99484.13;5075155;28;39973;-83
2023/04/19 03:28:26;;;;;;;9.23;7.83;;;;;;;10.73;76.42;99472.88;5092385;28;43257;-80
2023/04/19 03:31:13;;;;;;;8.27;7.33;;;;;;;10.80;76.31;99479.53;5091777;28;43100;-82
2023/04/19 03:33:41;;;;;;;10.27;8.67;;;;;;;10.80;76.92;99476.03;5091968;28;42767;-84
2023/04/19 03:36:10;;;;;;;9.50;8.30;;;;;;;10.78;77.69;99468.16;5091278;28;41254;-85
2023/04/19 03:38:40;;;;;;;11.10;8.87;;;;;;;10.82;77.61;99470.66;5074976;28;40541;-84
2023/04/19 03:41:19;;;;;;;9.60;7.93;;;;;;;10.76;77.52;99453.28;5074544;28;41311;-82
2023/04/19 03:43:48;;;;;;;8.57;7.00;;;;;;;10.88;77.40;99471.16;5075190;28;41011;-82
2023/04/19 03:46:16;;;;;;;11.00;8.37;;;;;;;10.71;77.81;99426.19;5074572;28;41488;-83
2023/04/19 03:48:44;;;;;;;11.47;8.80;;;;;;;10.88;78.23;99455.25;5074663;28;43642;-81
2023/04/19 03:51:14;;;;;;;12.30;9.00;;;;;;;10.91;78.47;99460.41;5074206;28;41932;-81
2023/04/19 03:53:44;;;;;;;9.60;8.43;;;;;;;10.94;78.05;99460.25;5091640;28;43087;-79
2023/04/19 03:56:12;;;;;;;11.03;8.63;;;;;;;10.95;79.10;99451.38;5074243;28;41043;-81
2023/04/19 03:58:40;;;;;;;11.03;9.10;;;;;;;10.87;78.26;99437.69;5074650;28;41789;-83
2023/04/19 04:01:09;;;;;;;10.40;8.90;;;;;;;10.89;78.46;99434.91;5074382;28;41803;-81
2023/04/19 04:03:36;;;;;;;10.47;9.20;;;;;;;10.95;78.75;99435.47;5091466;28;43320;-81
2023/04/19 04:06:05;;;;;;;11.50;8.77;;;;;;;11.02;78.73;99451.88;5074552;28;41073;-82
2023/04/19 04:08:33;;;;;;;9.83;8.57;;;;;;;11.06;78.61;99448.97;5091813;28;41900;-80
2023/04/19 04:11:02;;;;;;;10.40;9.30;;;;;;;11.06;79.74;99443.69;5074553;28;43114;-81
2023/04/19 04:13:30;;;;;;;11.63;8.60;;;;;;;11.02;79.89;99442.13;5091166;28;44452;-83
2023/04/19 04:16:08;;;;;;;11.57;8.90;;;;;;;11.02;80.15;99451.88;5089666;28;40974;-80
2023/04/19 04:18:36;;;;;;;9.83;8.50;;;;;;;11.02;79.78;99447.44;5074293;28;41757;-81
2023/04/19 04:21:07;;;;;;;10.23;8.47;;;;;;;11.04;80.23;99445.56;5087980;28;43788;-81
2023/04/19 04:23:38;;;;;;;9.50;7.83;;;;;;;11.07;79.52;99450.69;5074352;28;41080;-83
2023/04/19 04:26:12;;;;;;;9.27;7.33;;;;;;;11.08;80.04;99447.09;5074686;28;39683;-81
2023/04/19 04:29:04;;;;;;;7.97;6.70;;;;;;;11.11;79.40;99449.59;5074322;28;40731;-82
2023/04/19 04:31:34;;;;;;;10.80;7.27;;;;;;;11.14;79.01;99459.16;5091397;28;42919;-81
2023/04/19 04:34:02;;;;;;;8.40;6.80;;;;;;;11.18;79.16;99463.34;5074234;28;41400;-81
2023/04/19 04:36:32;;;;;;;9.97;7.23;;;;;;;11.20;78.75;99455.31;5074131;28;39906;-83
2023/04/19 04:39:01;;;;;;;7.40;6.60;;;;;;;11.23;79.23;99449.84;5073997;28;40880;-84
2023/04/19 04:41:31;;;;;;;6.20;5.60;;;;;;;11.23;78.78;99449.84;5074354;28;42983;-80
2023/04/19 04:44:00;;;;;;;7.30;6.50;;;;;;;11.26;78.73;99454.97;5073930;28;42308;-82
2023/04/19 04:46:28;;;;;;;7.40;6.60;;;;;;;11.27;78.65;99441.63;5074083;28;39900;-80
2023/04/19 04:48:56;;;;;;;8.57;6.90;;;;;;;11.32;78.91;99457.28;5090829;28;41305;-83
2023/04/19 04:51:25;;;;;;;7.17;6.47;;;;;;;11.33;78.31;99464.31;5073697;28;43190;-82
2023/04/19 04:53:54;;;;;;;7.30;6.10;;;;;;;11.36;78.35;99450.88;5073946;28;41228;-83
2023/04/19 04:56:22;;;;;;;7.70;6.60;;;;;;;11.34;78.67;99448.31;5073961;28;39788;-82
2023/04/19 04:58:51;;;;;;;8.10;7.30;;;;;;;11.31;78.56;99450.25;5073718;28;40828;-82
2023/04/19 05:01:27;;;;;;;8.27;7.27;;;;;;;11.24;78.78;99436.50;5087575;28;43467;-82
2023/04/19 05:03:55;;;;;;;8.40;7.60;;;;;;;11.15;78.87;99444.94;5073908;28;42316;-81
2023/04/19 05:06:23;;;;;;;8.47;7.17;;;;;;;11.06;78.97;99426.91;5074067;28;40843;-83
2023/04/19 05:08:51;;;;;;;8.37;6.60;;;;;;;11.21;78.73;99441.13;5073657;28;41401;-79
2023/04/19 05:11:30;;;;;;;9.57;7.90;;;;;;;11.15;78.53;99437.84;5073808;28;43084;-83
2023/04/19 05:13:59;;;;;;;8.37;7.57;;;;;;;11.09;78.79;99417.00;5073515;28;41220;-82
2023/04/19 05:16:27;;;;;;;9.47;8.47;;;;;;;11.25;78.80;99440.03;5073260;28;39633;-81
2023/04/19 05:18:56;;;;;;;9.27;8.17;;;;;;;11.27;78.95;99443.41;5090476;28;41768;-76
2023/04/19 05:21:25;;;;;;;10.53;8.60;;;;;;;11.09;78.62;99393.16;5064709;28;43188;-78
2023/04/19 05:23:53;;;;;;;9.67;8.77;;;;;;;11.40;78.26;99445.28;5072355;28;41404;-77
2023/04/19 05:26:21;;;;;;;10.40;8.67;;;;;;;11.47;78.54;99443.16;5089298;28;41091;-78
2023/04/19 05:28:50;;;;;;;10.07;9.07;;;;;;;11.56;78.36;99442.63;5072153;28;40743;-81
2023/04/19 05:31:30;;;;;;;10.70;9.53;;;;;;;11.57;77.81;99439.03;5086209;28;43314;-79
2023/04/19 05:34:10;;;;;;;10.00;8.37;;;;;;;11.63;78.06;99443.97;5073945;28;41964;-79
2023/04/19 05:36:38;;;;;;;10.03;8.13;;;;;;;11.71;77.61;99441.75;5092593;28;41956;-79
2023/04/19 05:39:06;;;;;;;9.93;8.93;;;;;;;11.75;77.60;99438.00;5075811;28;40893;-80
2023/04/19 05:41:33;;;;;;;9.90;8.90;;;;;;;11.83;77.14;99442.88;5092598;28;42994;-77
2023/04/19 05:44:01;;;;;;;11.20;10.00;;;;;;;11.75;76.74;99416.78;5092628;28;42469;-78
2023/04/19 05:46:31;;;;;;;10.27;8.80;;;;;;;11.93;76.32;99440.53;5075208;28;39753;-78
2023/04/19 05:48:59;;;;;;;13.70;9.30;;;;;;;11.96;76.40;99435.06;5092637;28;41869;-79
2023/04/19 05:51:42;;;;;;;10.73;8.63;;;;;;;11.96;76.00;99437.72;5092387;28;41756;-78
2023/04/19 05:54:23;;;;;;;9.80;8.90;;;;;;;12.00;76.03;99441.88;5075361;28;42478;-76
2023/04/19 05:56:51;;;;;;;10.87;9.77;;;;;;;11.96;75.43;99432.41;5092299;28;39799;-77
2023/04/19 05:59:19;;;;;;;9.70;8.67;;;;;;;12.06;75.80;99439.72;5092348;28;42700;-81
2023/04/19 06:01:49;;;;;;;9.93;8.57;;;;;;;12.14;75.46;99444.56;5092117;28;42816;-79
2023/04/19 06:04:16;;;;;;;12.40;10.80;;;;;;;12.19;75.09;99442.50;5073572;28;42208;-78
2023/04/19 06:06:44;;;;;;;10.50;9.40;;;;;;;12.15;74.76;99443.63;5091896;28;43147;-78
2023/04/19 06:09:16;;;;;;;11.83;10.10;;;;;;;12.21;74.71;99444.13;5090226;28;41661;-78
2023/04/19 06:11:44;;;;;;;11.40;10.20;;;;;;;12.24;74.17;99443.94;5092975;28;43788;-79
2023/04/19 06:14:13;;;;;;;10.63;9.63;;;;;;;12.31;73.86;99441.78;5075192;28;41295;-77
2023/04/19 06:16:41;;;;;;;10.87;9.77;;;;;;;12.24;73.88;99428.00;5091088;28;41274;-78
2023/04/19 06:19:10;;;;;;;11.30;10.10;;;;;;;12.44;73.74;99447.19;5091874;28;40908;-78
2023/04/19 06:21:38;;;;;;;11.10;9.60;;;;;;;12.47;73.05;99458.50;5091705;28;41855;-78
2023/04/19 06:24:07;;;;;;;12.20;10.23;;;;;;;12.47;73.31;99458.50;5075184;28;41374;-83
2023/04/19 06:26:34;;;;;;;11.53;10.33;;;;;;;12.37;72.98;99451.16;5074602;28;40078;-76
2023/04/19 06:29:02;;;;;;;12.07;10.03;;;;;;;12.35;72.59;99445.97;5093013;28;42505;-80
2023/04/19 06:31:30;;;;;;;10.90;9.60;;;;;;;12.34;71.68;99462.84;5074566;28;41514;-78
2023/04/19 06:33:57;;;;;;;11.30;9.50;;;;;;;12.31;71.42;99460.38;5074987;28;42308;-80
2023/04/19 06:36:27;;;;;;;10.07;9.07;;;;;;;12.40;70.96;99454.50;5091510;28;41899;-79
2023/04/19 06:38:55;;;;;;;13.67;8.60;;;;;;;12.26;68.63;99459.78;5092808;28;41644;-78
2023/04/19 06:44:07;;;;;;;10.67;8.23;;;;;;;12.27;67.92;99466.78;5080822;28;41109;-77
2023/04/19 06:46:35;;;;;;;9.23;7.67;;;;;;;12.27;68.62;99472.09;5074414;28;40150;-75
2023/04/19 06:49:03;;;;;;;8.60;7.80;;;;;;;12.26;68.22;99465.09;5092410;28;42770;-76
2023/04/19 06:51:33;;;;;;;9.57;7.17;;;;;;;12.33;68.28;99453.16;5090636;28;42764;-76
2023/04/19 06:54:00;;;;;;;9.13;7.53;;;;;;;12.30;68.31;99440.06;5074447;28;41330;-78
2023/04/19 06:56:44;;;;;;;9.20;6.83;;;;;;;12.44;68.00;99458.69;5091034;28;40834;-76
2023/04/19 06:59:13;;;;;;;8.87;7.97;;;;;;;12.31;66.64;99465.69;5089821;28;41812;-78
2023/04/19 07:01:40;;;;;;;7.37;6.60;;;;;;;12.38;66.51;99459.03;5074234;28;41678;-77
2023/04/19 07:04:09;;;;;;;8.50;6.20;;;;;;;12.40;66.16;99454.50;5091191;28;43238;-78
2023/04/19 07:06:39;;;;;;;7.87;6.47;;;;;;;12.33;65.57;99454.97;5073442;28;41187;-79
2023/04/19 07:09:08;;;;;;;7.77;6.57;;;;;;;12.48;65.00;99454.03;5074209;28;41736;-79
2023/04/19 07:11:35;;;;;;;7.33;6.03;;;;;;;12.65;64.49;99463.63;5091988;28;42823;-76
2023/04/19 07:14:03;;;;;;;9.83;6.47;;;;;;;12.73;63.37;99451.59;5090890;28;41194;-80
2023/04/19 07:16:31;;;;;;;6.93;6.23;;;;;;;12.94;63.34;99457.38;5091132;28;41973;-76
2023/04/19 07:18:58;;;;;;;7.30;5.67;;;;;;;13.15;62.74;99450.72;5090857;28;42018;-77
2023/04/19 07:21:31;;;;;;;6.30;5.67;;;;;;;13.52;62.24;99459.00;5090362;28;41666;-77
2023/04/19 07:24:00;;;;;;;6.67;5.87;;;;;;;13.77;60.20;99469.75;5074237;28;42594;-76
2023/04/19 07:26:28;;;;;;;7.73;5.17;;;;;;;13.96;59.93;99470.25;5073262;28;39933;-79
2023/04/19 07:28:56;;;;;;;7.20;5.57;;;;;;;14.10;58.16;99471.13;5091791;28;41572;-78
2023/04/19 07:31:24;;;;;;;5.37;4.80;;;;;;;14.27;58.33;99454.88;5089919;28;42590;-76
2023/04/19 07:33:52;;;;;;;7.37;5.83;;;;;;;14.49;57.42;99463.13;5091630;28;43225;-78
2023/04/19 07:36:20;;;;;;;7.60;5.90;;;;;;;14.52;56.76;99468.25;5073625;28;40252;-79
2023/04/19 07:38:48;;;;;;;5.53;5.03;;;;;;;14.51;56.07;99477.19;5091720;28;41427;-75
2023/04/19 07:41:18;;;;;;;5.87;5.27;;;;;;;14.32;55.87;99464.28;5090932;28;42839;-76
2023/04/19 07:43:45;;;;;;;8.80;5.97;;;;;;;14.28;56.02;99481.41;5073261;28;42566;-75
2023/04/19 07:46:15;;;;;;;6.40;5.80;;;;;;;14.33;55.43;99478.44;5091154;28;40959;-78
2023/04/19 07:48:43;;;;;;;6.57;5.33;;;;;;;14.29;54.84;99477.78;5090657;28;41826;-79
2023/04/19 07:51:11;;;;;;;6.17;5.57;;;;;;;14.48;55.00;99472.06;5089766;28;42671;-76
2023/04/19 07:53:42;;;;;;;6.20;5.60;;;;;;;14.54;54.34;99482.31;5090365;28;43195;-78
2023/04/19 07:56:11;;;;;;;5.87;5.27;;;;;;;14.82;54.20;99477.75;5089153;28;41487;-76
2023/04/19 07:58:40;;;;;;;6.10;5.03;;;;;;;14.91;53.41;99477.97;5089991;28;41412;-80
2023/04/19 08:01:08;;;;;;;7.07;5.30;;;;;;;15.16;52.83;99490.41;5089531;28;42779;-79
2023/04/19 08:03:36;;;;;;;5.70;5.10;;;;;;;15.35;53.19;99474.78;5090679;28;42485;-76
2023/04/19 08:06:11;;;;;;;7.63;5.37;;;;;;;15.80;52.00;99500.00;5090208;28;41081;-80
2023/04/19 08:08:39;;;;;;;5.83;5.10;;;;;;;15.85;51.03;99506.78;5073906;28;40353;-79
2023/04/19 08:11:07;;;;;;;5.43;4.93;;;;;;;15.66;51.83;99494.81;5091000;28;43817;-79
2023/04/19 08:13:34;;;;;;;5.17;4.67;;;;;;;15.95;51.79;99495.31;5091231;28;43041;-83
2023/04/19 08:16:04;;;;;;;5.33;4.83;;;;;;;16.43;51.01;99492.59;5072774;28;40555;-80
2023/04/19 08:18:33;;;;;;;5.53;4.67;;;;;;;16.66;50.29;99490.88;5090344;28;41758;-80
2023/04/19 08:21:00;;;;;;;6.63;5.50;;;;;;;16.67;49.46;99488.06;5090947;28;42679;-78
2023/04/19 08:23:28;;;;;;;5.43;4.93;;;;;;;16.34;49.28;99495.94;5090021;28;43161;-79
2023/04/19 08:25:58;;;;;;;6.83;6.00;;;;;;;16.23;49.83;99493.25;5090043;28;39601;-78
2023/04/19 08:28:26;;;;;;;7.97;6.17;;;;;;;16.11;50.60;99495.88;5072604;28;40730;-78
2023/04/19 08:30:55;;;;;;;6.87;5.07;;;;;;;15.97;51.47;99476.50;5073220;28;41585;-86
2023/04/19 08:33:26;;;;;;;6.67;5.57;;;;;;;15.84;51.11;99471.22;5091131;28;42391;-80
2023/04/19 08:35:54;;;;;;;6.40;5.17;;;;;;;15.67;51.62;99479.63;5090420;28;41013;-83
2023/04/19 08:38:27;;;;;;;6.47;5.77;;;;;;;15.59;51.87;99463.31;5090029;28;41469;-78
2023/04/19 08:40:56;;;;;;;6.27;5.67;;;;;;;15.45;52.42;99465.13;5088511;28;41593;-84
2023/04/19 08:43:27;;;;;;;5.87;5.30;;;;;;;15.42;52.51;99486.72;5091273;28;42267;-84
2023/04/19 08:45:57;;;;;;;6.73;5.57;;;;;;;15.21;53.28;99468.72;5087722;28;41120;-79
2023/04/19 08:48:28;;;;;;;5.63;5.13;;;;;;;15.28;52.99;99473.53;5073057;28;42890;-79
2023/04/19 08:50:58;;;;;;;7.20;5.50;;;;;;;15.21;52.87;99472.25;5087619;28;42567;-77
2023/04/19 08:53:28;;;;;;;7.93;5.70;;;;;;;15.12;52.58;99472.91;5072527;28;42297;-80
2023/04/19 08:55:58;;;;;;;5.23;4.73;;;;;;;15.11;53.02;99449.84;5089669;28;40889;-80
2023/04/19 08:58:28;;;;;;;6.53;5.60;;;;;;;15.48;52.12;99461.41;5091057;28;42544;-79
2023/04/19 09:00:58;;;;;;;6.97;5.50;;;;;;;15.79;51.48;99466.22;5090631;28;42391;-81
2023/04/19 09:03:27;;;;;;;5.83;5.30;;;;;;;16.01;51.73;99462.81;5089878;28;42905;-79
2023/04/19 09:05:55;;;;;;;6.77;5.13;;;;;;;15.94;50.29;99472.25;5089359;28;39864;-79
2023/04/19 09:08:25;;;;;;;5.73;4.93;;;;;;;15.85;50.46;99475.59;5091746;28;41683;-79
2023/04/19 09:10:55;;;;;;;6.53;5.33;;;;;;;15.70;50.58;99480.25;5075824;28;42777;-80
2023/04/19 09:13:23;;;;;;;5.63;5.10;;;;;;;15.55;50.97;99459.19;5092119;28;42200;-79
2023/04/19 09:15:52;;;;;;;6.10;5.50;;;;;;;15.76;50.00;99476.28;5092281;28;41878;-82
2023/04/19 09:18:20;;;;;;;6.37;5.00;;;;;;;15.76;48.92;99462.94;5091430;28;40569;-80
2023/04/19 09:20:49;;;;;;;5.60;5.10;;;;;;;15.95;48.95;99473.13;5070268;28;43068;-87
2023/04/19 09:23:19;;;;;;;5.27;4.77;;;;;;;15.92;49.35;99442.13;5074906;28;41444;-83
2023/04/19 09:25:55;;;;;;;4.50;4.07;;;;;;;16.33;49.65;99465.69;5074748;28;40184;-80
2023/04/19 09:28:23;;;;;;;6.70;4.57;;;;;;;16.52;49.29;99462.47;5093554;28;40943;-81
2023/04/19 09:30:50;;;;;;;4.53;4.13;;;;;;;16.71;48.15;99470.78;5092350;28;42887;-82
2023/04/19 09:33:35;;;;;;;6.27;4.80;;;;;;;16.66;47.12;99473.00;5075864;28;41833;-82
2023/04/19 09:36:05;;;;;;;5.70;4.67;;;;;;;17.08;46.80;99470.56;5075014;28;39673;-80
2023/04/19 09:38:46;;;;;;;5.17;4.67;;;;;;;17.65;46.09;99432.09;5092845;28;43531;-80
2023/04/19 09:41:14;;;;;;;5.13;4.63;;;;;;;19.00;43.32;99477.69;5092066;28;41790;-80
2023/04/19 09:43:42;;;;;;;4.77;3.83;;;;;;;20.11;42.19;99499.09;5075487;28;40786;-83
2023/04/19 09:46:10;;;;;;;5.70;3.93;;;;;;;20.37;40.65;99502.97;5091654;28;41164;-77
2023/04/19 09:48:37;;;;;;;3.87;3.57;;;;;;;20.56;40.34;99499.38;5076178;28;42039;-87
2023/04/19 09:51:07;;;;;;;5.07;4.30;;;;;;;20.60;39.34;99498.13;5091822;28;42792;-82
2023/04/19 09:53:35;;;;;;;4.50;4.10;;;;;;;20.30;39.25;99511.69;5069971;28;41406;-85
2023/04/19 09:56:04;;;;;;;4.30;3.90;;;;;;;19.75;39.63;99511.34;5074926;28;40276;-83
2023/04/19 09:58:32;;;;;;;4.80;3.80;;;;;;;19.34;40.82;99496.19;5094041;28;42218;-80
2023/04/19 10:01:01;;;;;;;5.57;3.93;;;;;;;19.18;41.55;99482.41;5075136;28;41996;-83
2023/04/19 10:03:29;;;;;;;4.30;3.77;;;;;;;18.85;40.23;99495.13;5092336;28;42848;-82
2023/04/19 10:05:58;;;;;;;4.00;3.60;;;;;;;18.86;41.53;99474.50;5074926;28;40904;-84
2023/04/19 10:08:28;;;;;;;4.20;3.83;;;;;;;19.05;40.57;99489.84;5075247;28;41822;-85
2023/04/19 10:10:56;;;;;;;5.00;3.90;;;;;;;18.89;40.97;99464.38;5092823;28;42526;-82
2023/04/19 10:13:25;;;;;;;4.80;4.37;;;;;;;19.01;40.56;99468.66;5091884;28;41233;-84
2023/04/19 10:15:52;;;;;;;5.83;4.47;;;;;;;19.04;40.60;99488.16;5091452;28;40544;-82
2023/04/19 10:18:21;;;;;;;4.40;4.00;;;;;;;18.95;40.34;99479.06;5091745;28;44281;-80
2023/04/19 10:20:55;;;;;;;6.33;4.73;;;;;;;19.35;40.03;99496.06;5090979;28;42435;-83
2023/04/19 10:23:23;;;;;;;5.27;4.77;;;;;;;19.29;38.99;99491.22;5087352;28;42493;-80
2023/04/19 10:25:56;;;;;;;5.30;4.87;;;;;;;19.18;39.62;99485.09;5075091;28;39136;-86
2023/04/19 10:28:24;;;;;;;5.67;5.00;;;;;;;19.23;40.30;99485.56;5088267;28;41563;-85
2023/04/19 10:30:59;;;;;;;5.97;5.37;;;;;;;19.18;39.84;99463.63;5092391;28;42766;-80
2023/04/19 10:33:29;;;;;;;5.50;5.00;;;;;;;19.44;39.12;99474.75;5083670;28;42231;-85
2023/04/19 10:35:59;;;;;;;6.47;5.27;;;;;;;20.36;38.44;99466.28;5091432;28;41249;-83
2023/04/19 10:38:38;;;;;;;6.43;5.40;;;;;;;21.90;37.22;99466.69;5092008;28;42480;-83
2023/04/19 10:41:13;;;;;;;5.67;5.17;;;;;;;22.14;35.82;99485.84;5074111;28;42069;-84
2023/04/19 10:43:41;;;;;;;5.97;5.37;;;;;;;21.41;35.52;99495.78;5090421;28;42321;-83
2023/04/19 10:46:13;;;;;;;5.60;5.10;;;;;;;22.54;33.91;99502.41;5073742;28;39897;-82
2023/04/19 10:48:52;;;;;;;5.27;4.67;;;;;;;24.72;32.80;99500.81;5089051;28;41991;-84
2023/04/19 10:51:21;;;;;;;5.73;5.17;;;;;;;26.16;30.04;99512.38;5089320;28;42940;-83
2023/04/19 10:53:55;;;;;;;6.23;5.53;;;;;;;26.13;27.43;99519.00;5092188;28;43162;-83
2023/04/19 10:56:58;;;;;;;5.90;5.00;;;;;;;24.97;28.60;99509.78;5090952;28;42150;-84
2023/04/19 10:59:27;;;;;;;6.30;5.13;;;;;;;23.85;30.57;99488.66;5072531;28;42202;-83
2023/04/19 11:01:56;;;;;;;8.23;5.53;;;;;;;24.88;29.29;99489.06;5068252;28;41722;-81
2023/04/19 11:05:00;;;;;;;8.17;5.77;;;;;;;25.88;28.79;99488.44;5073995;28;41055;-87
2023/04/19 11:07:28;;;;;;;5.90;5.00;;;;;;;27.02;27.98;99488.44;5101581;28;39998;-79
2023/04/19 11:09:55;;;;;;;6.20;5.60;;;;;;;27.81;26.61;99491.44;5090958;28;41852;-80
2023/04/19 11:12:25;;;;;;;7.33;5.80;;;;;;;28.12;24.97;99508.34;5084310;28;43190;-86
2023/04/19 11:14:56;;;;;;;5.70;5.07;;;;;;;29.10;25.17;99493.16;5090573;28;41202;-81
2023/04/19 11:17:26;;;;;;;6.27;4.90;;;;;;;29.55;25.69;99483.59;5073786;28;40044;-84
2023/04/19 11:19:55;;;;;;;5.53;5.03;;;;;;;29.99;23.97;99494.09;5084873;28;42505;-84
2023/04/19 11:22:26;;;;;;;6.80;4.80;;;;;;;30.56;23.93;99477.19;5090447;28;44814;-82
2023/04/19 11:24:54;;;;;;;5.00;4.50;;;;;;;31.01;22.93;99459.09;5074162;28;41511;-81
2023/04/19 11:27:22;;;;;;;4.37;3.97;;;;;;;30.00;21.92;99509.44;5073410;28;41782;-79
2023/04/19 11:29:51;;;;;;;3.70;3.40;;;;;;;28.49;23.41;99474.59;5073940;28;41017;-80
2023/04/19 11:32:21;;;;;;;4.10;3.20;;;;;;;28.54;25.07;99457.66;5089001;28;42981;-81
2023/04/19 11:34:49;;;;;;;4.00;3.70;;;;;;;28.71;21.83;99423.63;5073748;28;42392;-83
2023/04/19 11:37:17;;;;;;;3.67;3.37;;;;;;;30.30;22.41;99472.50;5089864;28;41022;-81
2023/04/19 11:39:47;;;;;;;4.50;3.30;;;;;;;30.76;20.53;99471.75;5090922;28;41584;-85
2023/04/19 11:42:19;;;;;;;4.13;3.70;;;;;;;30.86;19.29;99471.31;5073250;28;41152;-82
2023/04/19 11:44:52;;;;;;;3.70;3.00;;;;;;;30.95;20.32;99454.47;5090770;28;43033;-81
2023/04/19 11:47:20;;;;;;;3.27;2.97;;;;;;;31.78;20.35;99463.75;5091271;28;40668;-79